sensor_id;sensor_type;location;lat;lon;timestamp;temperature;humidity
26212;DHT22;13951;49.516;6.094;2023-03-31T00:02:11;11.60;99.90
26212;DHT22;13951;49.516;6.094;2023-03-31T00:04:47;11.60;99.90
26212;DHT22;13951;49.516;6.094;2023-03-31T00:07:24;11.60;99.90
26212;DHT22;13951;49.516;6.094;2023-03-31T00:09:57;11.60;99.90
26212;DHT22;13951;49.516;6.094;2023-03-31T00:12:49;11.60;99.90
26212;DHT22;13951;49.516;6.094;2023-03-31T00:15:22;11.60;99.90
26212;DHT22;13951;49.516;6.094;2023-03-31T00:17:56;11.60;99.90
26212;DHT22;13951;49.516;6.094;2023-03-31T00:20:32;11.60;99.90
26212;DHT22;13951;49.516;6.094;2023-03-31T00:23:05;11.50;99.90
26212;DHT22;13951;49.516;6.094;2023-03-31T00:25:43;11.50;99.90
26212;DHT22;13951;49.516;6.094;2023-03-31T00:28:16;11.40;99.90
26212;DHT22;13951;49.516;6.094;2023-03-31T00:30:49;11.40;99.90
26212;DHT22;13951;49.516;6.094;2023-03-31T00:33:23;11.40;99.90
26212;DHT22;13951;49.516;6.094;2023-03-31T00:35:55;11.30;99.90
26212;DHT22;13951;49.516;6.094;2023-03-31T00:38:33;11.30;99.90
26212;DHT22;13951;49.516;6.094;2023-03-31T00:41:06;11.30;99.90
26212;DHT22;13951;49.516;6.094;2023-03-31T00:43:40;11.20;99.90
26212;DHT22;13951;49.516;6.094;2023-03-31T00:46:20;11.10;99.90
26212;DHT22;13951;49.516;6.094;2023-03-31T00:48:55;11.10;99.90
26212;DHT22;13951;49.516;6.094;2023-03-31T00:51:32;11.10;99.90
26212;DHT22;13951;49.516;6.094;2023-03-31T00:54:06;11.00;99.90
26212;DHT22;13951;49.516;6.094;2023-03-31T00:56:43;11.00;99.90
26212;DHT22;13951;49.516;6.094;2023-03-31T00:59:22;10.90;99.90
26212;DHT22;13951;49.516;6.094;2023-03-31T01:01:57;10.90;99.90
26212;DHT22;13951;49.516;6.094;2023-03-31T01:04:34;10.80;99.90
26212;DHT22;13951;49.516;6.094;2023-03-31T01:09:49;10.80;99.90
26212;DHT22;13951;49.516;6.094;2023-03-31T01:12:24;10.80;99.90
26212;DHT22;13951;49.516;6.094;2023-03-31T01:14:58;10.70;99.90
26212;DHT22;13951;49.516;6.094;2023-03-31T01:17:33;10.70;99.90
26212;DHT22;13951;49.516;6.094;2023-03-31T01:23:00;10.70;99.90
26212;DHT22;13951;49.516;6.094;2023-03-31T01:29:04;10.70;99.90
26212;DHT22;13951;49.516;6.094;2023-03-31T01:46:00;10.60;99.90
26212;DHT22;13951;49.516;6.094;2023-03-31T01:48:53;10.60;99.90
26212;DHT22;13951;49.516;6.094;2023-03-31T01:51:38;10.60;99.90
26212;DHT22;13951;49.516;6.094;2023-03-31T01:54:21;10.60;99.90
26212;DHT22;13951;49.516;6.094;2023-03-31T01:56:57;10.60;99.90
26212;DHT22;13951;49.516;6.094;2023-03-31T01:59:33;10.60;99.90
26212;DHT22;13951;49.516;6.094;2023-03-31T02:02:19;10.60;99.90
26212;DHT22;13951;49.516;6.094;2023-03-31T02:05:10;10.60;99.90
26212;DHT22;13951;49.516;6.094;2023-03-31T02:07:54;10.60;99.90
26212;DHT22;13951;49.516;6.094;2023-03-31T02:10:30;10.60;99.90
26212;DHT22;13951;49.516;6.094;2023-03-31T02:13:04;10.70;99.90
26212;DHT22;13951;49.516;6.094;2023-03-31T02:15:40;10.60;99.90
26212;DHT22;13951;49.516;6.094;2023-03-31T02:18:16;10.60;99.90
26212;DHT22;13951;49.516;6.094;2023-03-31T02:20:53;10.50;99.90
26212;DHT22;13951;49.516;6.094;2023-03-31T02:23:28;10.60;99.90
26212;DHT22;13951;49.516;6.094;2023-03-31T02:26:04;10.60;99.90
26212;DHT22;13951;49.516;6.094;2023-03-31T02:28:39;10.60;99.90
26212;DHT22;13951;49.516;6.094;2023-03-31T02:33:50;10.50;99.90
26212;DHT22;13951;49.516;6.094;2023-03-31T02:36:23;10.50;99.90
26212;DHT22;13951;49.516;6.094;2023-03-31T02:39:02;10.50;99.90
26212;DHT22;13951;49.516;6.094;2023-03-31T02:41:37;10.50;99.90
26212;DHT22;13951;49.516;6.094;2023-03-31T02:44:10;10.40;99.90
26212;DHT22;13951;49.516;6.094;2023-03-31T02:46:44;10.40;99.90
26212;DHT22;13951;49.516;6.094;2023-03-31T02:49:17;10.40;99.90
26212;DHT22;13951;49.516;6.094;2023-03-31T03:07:06;10.50;99.90
26212;DHT22;13951;49.516;6.094;2023-03-31T03:09:57;10.50;99.90
26212;DHT22;13951;49.516;6.094;2023-03-31T03:12:50;10.40;99.90
26212;DHT22;13951;49.516;6.094;2023-03-31T03:15:30;10.40;99.90
26212;DHT22;13951;49.516;6.094;2023-03-31T03:18:05;10.40;99.90
26212;DHT22;13951;49.516;6.094;2023-03-31T03:20:38;10.40;99.90
26212;DHT22;13951;49.516;6.094;2023-03-31T03:23:12;10.30;99.90
26212;DHT22;13951;49.516;6.094;2023-03-31T03:25:44;10.30;99.90
26212;DHT22;13951;49.516;6.094;2023-03-31T03:28:18;10.30;99.90
26212;DHT22;13951;49.516;6.094;2023-03-31T03:30:51;10.30;99.90
26212;DHT22;13951;49.516;6.094;2023-03-31T03:33:24;10.30;99.90
26212;DHT22;13951;49.516;6.094;2023-03-31T03:35:57;10.20;99.90
26212;DHT22;13951;49.516;6.094;2023-03-31T03:38:30;10.20;99.90
26212;DHT22;13951;49.516;6.094;2023-03-31T03:41:03;10.20;99.90
26212;DHT22;13951;49.516;6.094;2023-03-31T03:43:36;10.20;99.90
26212;DHT22;13951;49.516;6.094;2023-03-31T03:46:08;10.10;99.90
26212;DHT22;13951;49.516;6.094;2023-03-31T03:48:41;10.10;99.90
26212;DHT22;13951;49.516;6.094;2023-03-31T03:51:14;10.20;99.90
26212;DHT22;13951;49.516;6.094;2023-03-31T03:53:47;10.10;99.90
26212;DHT22;13951;49.516;6.094;2023-03-31T03:56:20;10.10;99.90
26212;DHT22;13951;49.516;6.094;2023-03-31T03:58:53;10.10;99.90
26212;DHT22;13951;49.516;6.094;2023-03-31T04:01:26;10.10;99.90
26212;DHT22;13951;49.516;6.094;2023-03-31T04:03:59;10.10;99.90
26212;DHT22;13951;49.516;6.094;2023-03-31T04:06:32;10.10;99.90
26212;DHT22;13951;49.516;6.094;2023-03-31T04:09:05;10.10;99.90
26212;DHT22;13951;49.516;6.094;2023-03-31T04:11:37;10.10;99.90
26212;DHT22;13951;49.516;6.094;2023-03-31T04:14:10;10.10;99.90
26212;DHT22;13951;49.516;6.094;2023-03-31T04:16:43;10.10;99.90
26212;DHT22;13951;49.516;6.094;2023-03-31T04:19:18;10.10;99.90
26212;DHT22;13951;49.516;6.094;2023-03-31T04:21:53;10.10;99.90
26212;DHT22;13951;49.516;6.094;2023-03-31T04:24:34;10.10;99.90
26212;DHT22;13951;49.516;6.094;2023-03-31T04:27:10;10.00;99.90
26212;DHT22;13951;49.516;6.094;2023-03-31T04:29:44;10.00;99.90
26212;DHT22;13951;49.516;6.094;2023-03-31T04:32:19;10.00;99.90
26212;DHT22;13951;49.516;6.094;2023-03-31T04:34:53;10.00;99.90
26212;DHT22;13951;49.516;6.094;2023-03-31T04:37:34;10.00;99.90
26212;DHT22;13951;49.516;6.094;2023-03-31T04:40:10;10.00;99.90
26212;DHT22;13951;49.516;6.094;2023-03-31T04:42:44;9.90;99.90
26212;DHT22;13951;49.516;6.094;2023-03-31T04:45:17;9.90;99.90
26212;DHT22;13951;49.516;6.094;2023-03-31T04:47:50;10.00;99.90
26212;DHT22;13951;49.516;6.094;2023-03-31T04:50:23;9.90;99.90
26212;DHT22;13951;49.516;6.094;2023-03-31T04:52:55;9.90;99.90
26212;DHT22;13951;49.516;6.094;2023-03-31T04:55:28;9.90;99.90
26212;DHT22;13951;49.516;6.094;2023-03-31T04:58:01;9.90;99.90
26212;DHT22;13951;49.516;6.094;2023-03-31T05:00:34;10.00;99.90
26212;DHT22;13951;49.516;6.094;2023-03-31T05:03:06;10.00;99.90
26212;DHT22;13951;49.516;6.094;2023-03-31T05:05:41;10.00;99.90
26212;DHT22;13951;49.516;6.094;2023-03-31T05:08:14;10.10;99.90
26212;DHT22;13951;49.516;6.094;2023-03-31T05:10:46;10.10;99.90
26212;DHT22;13951;49.516;6.094;2023-03-31T05:13:19;10.10;99.90
26212;DHT22;13951;49.516;6.094;2023-03-31T05:15:52;10.20;99.90
26212;DHT22;13951;49.516;6.094;2023-03-31T05:18:25;10.10;99.90
26212;DHT22;13951;49.516;6.094;2023-03-31T05:21:16;10.10;99.90
26212;DHT22;13951;49.516;6.094;2023-03-31T05:23:50;10.10;99.90
26212;DHT22;13951;49.516;6.094;2023-03-31T05:26:23;10.10;99.90
26212;DHT22;13951;49.516;6.094;2023-03-31T05:28:56;10.10;99.90
26212;DHT22;13951;49.516;6.094;2023-03-31T05:31:29;10.10;99.90
26212;DHT22;13951;49.516;6.094;2023-03-31T05:34:02;10.10;99.90
26212;DHT22;13951;49.516;6.094;2023-03-31T05:36:34;10.10;99.90
26212;DHT22;13951;49.516;6.094;2023-03-31T05:39:09;10.00;99.90
26212;DHT22;13951;49.516;6.094;2023-03-31T05:41:41;10.00;99.90
26212;DHT22;13951;49.516;6.094;2023-03-31T05:44:15;10.00;99.90
26212;DHT22;13951;49.516;6.094;2023-03-31T05:46:47;10.00;99.90
26212;DHT22;13951;49.516;6.094;2023-03-31T05:49:21;10.00;99.90
26212;DHT22;13951;49.516;6.094;2023-03-31T05:51:53;10.00;99.90
26212;DHT22;13951;49.516;6.094;2023-03-31T05:54:26;10.00;99.90
26212;DHT22;13951;49.516;6.094;2023-03-31T05:56:59;10.00;99.90
26212;DHT22;13951;49.516;6.094;2023-03-31T05:59:32;10.10;99.90
26212;DHT22;13951;49.516;6.094;2023-03-31T06:02:09;10.10;99.90
26212;DHT22;13951;49.516;6.094;2023-03-31T06:04:44;10.10;99.90
26212;DHT22;13951;49.516;6.094;2023-03-31T06:07:17;10.20;99.90
26212;DHT22;13951;49.516;6.094;2023-03-31T06:09:50;10.30;99.90
26212;DHT22;13951;49.516;6.094;2023-03-31T06:12:23;10.40;99.90
26212;DHT22;13951;49.516;6.094;2023-03-31T06:14:55;10.40;99.90
26212;DHT22;13951;49.516;6.094;2023-03-31T06:17:28;10.50;99.90
26212;DHT22;13951;49.516;6.094;2023-03-31T06:20:01;10.60;99.90
26212;DHT22;13951;49.516;6.094;2023-03-31T06:22:47;10.60;99.90
26212;DHT22;13951;49.516;6.094;2023-03-31T06:25:20;10.60;99.90
26212;DHT22;13951;49.516;6.094;2023-03-31T06:27:53;10.60;99.90
26212;DHT22;13951;49.516;6.094;2023-03-31T06:30:26;10.60;99.90
26212;DHT22;13951;49.516;6.094;2023-03-31T06:32:59;10.60;99.90
26212;DHT22;13951;49.516;6.094;2023-03-31T06:35:32;10.60;99.90
26212;DHT22;13951;49.516;6.094;2023-03-31T06:38:05;10.60;99.90
26212;DHT22;13951;49.516;6.094;2023-03-31T06:40:38;10.70;99.90
26212;DHT22;13951;49.516;6.094;2023-03-31T06:43:11;10.70;99.90
26212;DHT22;13951;49.516;6.094;2023-03-31T06:45:46;10.70;99.90
26212;DHT22;13951;49.516;6.094;2023-03-31T06:48:19;10.80;99.90
26212;DHT22;13951;49.516;6.094;2023-03-31T06:50:53;10.80;99.90
26212;DHT22;13951;49.516;6.094;2023-03-31T06:53:26;10.80;99.90
26212;DHT22;13951;49.516;6.094;2023-03-31T06:55:59;10.80;99.90
26212;DHT22;13951;49.516;6.094;2023-03-31T06:58:32;10.90;99.90
26212;DHT22;13951;49.516;6.094;2023-03-31T07:01:05;10.90;99.90
26212;DHT22;13951;49.516;6.094;2023-03-31T07:03:39;10.90;99.90
26212;DHT22;13951;49.516;6.094;2023-03-31T07:06:11;10.90;99.90
26212;DHT22;13951;49.516;6.094;2023-03-31T07:08:44;11.00;99.90
26212;DHT22;13951;49.516;6.094;2023-03-31T07:11:17;10.90;99.90
26212;DHT22;13951;49.516;6.094;2023-03-31T07:13:52;10.90;99.90
26212;DHT22;13951;49.516;6.094;2023-03-31T07:16:25;10.90;99.90
26212;DHT22;13951;49.516;6.094;2023-03-31T07:18:58;10.90;99.90
26212;DHT22;13951;49.516;6.094;2023-03-31T07:21:31;10.90;99.90
26212;DHT22;13951;49.516;6.094;2023-03-31T07:24:04;10.90;99.90
26212;DHT22;13951;49.516;6.094;2023-03-31T07:26:37;11.00;99.90
26212;DHT22;13951;49.516;6.094;2023-03-31T07:29:10;11.10;99.90
26212;DHT22;13951;49.516;6.094;2023-03-31T07:31:42;11.10;99.90
26212;DHT22;13951;49.516;6.094;2023-03-31T07:34:18;11.10;99.90
26212;DHT22;13951;49.516;6.094;2023-03-31T07:36:54;11.10;99.90
26212;DHT22;13951;49.516;6.094;2023-03-31T07:39:27;11.20;99.90
26212;DHT22;13951;49.516;6.094;2023-03-31T07:42:00;11.20;99.90
26212;DHT22;13951;49.516;6.094;2023-03-31T07:44:34;11.20;99.90
26212;DHT22;13951;49.516;6.094;2023-03-31T07:47:07;11.20;99.90
26212;DHT22;13951;49.516;6.094;2023-03-31T07:49:40;11.20;99.90
26212;DHT22;13951;49.516;6.094;2023-03-31T07:52:12;11.20;99.90
26212;DHT22;13951;49.516;6.094;2023-03-31T07:54:45;11.20;99.90
26212;DHT22;13951;49.516;6.094;2023-03-31T07:57:18;11.20;99.90
26212;DHT22;13951;49.516;6.094;2023-03-31T07:59:51;11.20;99.90
26212;DHT22;13951;49.516;6.094;2023-03-31T08:02:24;11.10;99.90
26212;DHT22;13951;49.516;6.094;2023-03-31T08:04:57;11.10;99.90
26212;DHT22;13951;49.516;6.094;2023-03-31T08:07:36;11.00;99.90
26212;DHT22;13951;49.516;6.094;2023-03-31T08:10:13;11.00;99.90
26212;DHT22;13951;49.516;6.094;2023-03-31T08:12:46;11.00;99.90
26212;DHT22;13951;49.516;6.094;2023-03-31T08:15:20;11.00;99.90
26212;DHT22;13951;49.516;6.094;2023-03-31T08:17:53;11.10;99.90
26212;DHT22;13951;49.516;6.094;2023-03-31T08:20:25;11.20;99.90
26212;DHT22;13951;49.516;6.094;2023-03-31T08:22:58;11.30;99.90
26212;DHT22;13951;49.516;6.094;2023-03-31T08:25:31;11.40;99.90
26212;DHT22;13951;49.516;6.094;2023-03-31T08:28:04;11.50;99.90
26212;DHT22;13951;49.516;6.094;2023-03-31T08:30:39;11.70;99.90
26212;DHT22;13951;49.516;6.094;2023-03-31T08:33:12;11.90;99.90
26212;DHT22;13951;49.516;6.094;2023-03-31T08:35:45;12.10;99.90
26212;DHT22;13951;49.516;6.094;2023-03-31T08:38:17;12.20;99.90
26212;DHT22;13951;49.516;6.094;2023-03-31T08:40:50;12.20;99.90
26212;DHT22;13951;49.516;6.094;2023-03-31T08:43:28;12.10;99.90
26212;DHT22;13951;49.516;6.094;2023-03-31T08:46:03;12.00;99.90
26212;DHT22;13951;49.516;6.094;2023-03-31T08:48:41;12.00;99.90
26212;DHT22;13951;49.516;6.094;2023-03-31T08:51:26;12.00;99.90
26212;DHT22;13951;49.516;6.094;2023-03-31T08:54:02;12.10;99.90
26212;DHT22;13951;49.516;6.094;2023-03-31T08:56:41;12.20;99.90
26212;DHT22;13951;49.516;6.094;2023-03-31T08:59:29;12.20;99.90
26212;DHT22;13951;49.516;6.094;2023-03-31T09:08:05;12.40;99.90
26212;DHT22;13951;49.516;6.094;2023-03-31T09:10:58;12.50;99.90
26212;DHT22;13951;49.516;6.094;2023-03-31T09:16:37;12.50;99.90
26212;DHT22;13951;49.516;6.094;2023-03-31T09:19:19;12.40;99.90
26212;DHT22;13951;49.516;6.094;2023-03-31T09:21:54;12.30;99.90
26212;DHT22;13951;49.516;6.094;2023-03-31T09:24:35;12.30;99.90
26212;DHT22;13951;49.516;6.094;2023-03-31T09:27:11;12.30;99.90
26212;DHT22;13951;49.516;6.094;2023-03-31T09:30:32;12.30;99.90
26212;DHT22;13951;49.516;6.094;2023-03-31T09:32:44;12.30;99.90
26212;DHT22;13951;49.516;6.094;2023-03-31T09:35:21;12.40;99.90
26212;DHT22;13951;49.516;6.094;2023-03-31T09:37:54;12.50;99.90
26212;DHT22;13951;49.516;6.094;2023-03-31T09:40:28;12.50;99.90
26212;DHT22;13951;49.516;6.094;2023-03-31T09:43:05;12.60;99.90
26212;DHT22;13951;49.516;6.094;2023-03-31T09:45:38;12.60;99.90
26212;DHT22;13951;49.516;6.094;2023-03-31T09:48:15;12.70;99.90
26212;DHT22;13951;49.516;6.094;2023-03-31T09:50:54;12.70;99.90
26212;DHT22;13951;49.516;6.094;2023-03-31T09:56:07;12.60;99.90
26212;DHT22;13951;49.516;6.094;2023-03-31T09:58:44;12.50;99.90
26212;DHT22;13951;49.516;6.094;2023-03-31T10:01:17;12.50;99.90
26212;DHT22;13951;49.516;6.094;2023-03-31T10:03:52;12.50;99.90
26212;DHT22;13951;49.516;6.094;2023-03-31T10:06:25;12.60;99.90
26212;DHT22;13951;49.516;6.094;2023-03-31T10:09:00;12.60;99.90
26212;DHT22;13951;49.516;6.094;2023-03-31T10:11:33;12.70;99.90
26212;DHT22;13951;49.516;6.094;2023-03-31T10:14:12;12.80;99.90
26212;DHT22;13951;49.516;6.094;2023-03-31T10:16:56;12.90;99.90
26212;DHT22;13951;49.516;6.094;2023-03-31T10:19:32;13.00;99.90
26212;DHT22;13951;49.516;6.094;2023-03-31T10:22:17;13.10;99.90
26212;DHT22;13951;49.516;6.094;2023-03-31T10:25:14;13.20;99.90
26212;DHT22;13951;49.516;6.094;2023-03-31T10:27:51;13.10;99.90
26212;DHT22;13951;49.516;6.094;2023-03-31T10:30:30;13.00;99.90
26212;DHT22;13951;49.516;6.094;2023-03-31T10:33:13;13.00;99.90
26212;DHT22;13951;49.516;6.094;2023-03-31T10:35:57;12.90;99.90
26212;DHT22;13951;49.516;6.094;2023-03-31T10:38:36;12.90;99.90
26212;DHT22;13951;49.516;6.094;2023-03-31T10:41:09;12.90;99.90
26212;DHT22;13951;49.516;6.094;2023-03-31T10:43:51;12.80;99.90
26212;DHT22;13951;49.516;6.094;2023-03-31T10:49:25;12.70;99.90
26212;DHT22;13951;49.516;6.094;2023-03-31T10:51:59;12.90;99.90
26212;DHT22;13951;49.516;6.094;2023-03-31T10:54:35;13.10;99.90
26212;DHT22;13951;49.516;6.094;2023-03-31T10:57:09;13.20;99.90
26212;DHT22;13951;49.516;6.094;2023-03-31T11:00:11;13.30;99.90
26212;DHT22;13951;49.516;6.094;2023-03-31T11:05:51;13.50;99.90
26212;DHT22;13951;49.516;6.094;2023-03-31T11:08:52;13.50;99.90
26212;DHT22;13951;49.516;6.094;2023-03-31T11:11:40;13.40;99.90
26212;DHT22;13951;49.516;6.094;2023-03-31T11:17:34;13.00;99.90
26212;DHT22;13951;49.516;6.094;2023-03-31T11:20:30;12.80;99.90
26212;DHT22;13951;49.516;6.094;2023-03-31T11:26:02;12.40;99.90
26212;DHT22;13951;49.516;6.094;2023-03-31T11:35:05;12.40;99.90
26212;DHT22;13951;49.516;6.094;2023-03-31T11:37:53;12.60;99.90
26212;DHT22;13951;49.516;6.094;2023-03-31T11:40:39;13.10;99.90
26212;DHT22;13951;49.516;6.094;2023-03-31T11:46:02;13.80;99.90
26212;DHT22;13951;49.516;6.094;2023-03-31T11:51:15;14.50;99.90
26212;DHT22;13951;49.516;6.094;2023-03-31T11:53:52;14.90;99.90
26212;DHT22;13951;49.516;6.094;2023-03-31T11:56:34;15.20;99.90
26212;DHT22;13951;49.516;6.094;2023-03-31T11:59:10;15.30;99.90
26212;DHT22;13951;49.516;6.094;2023-03-31T12:04:50;15.20;99.90
26212;DHT22;13951;49.516;6.094;2023-03-31T12:07:37;15.10;99.90
26212;DHT22;13951;49.516;6.094;2023-03-31T12:10:22;15.10;99.90
26212;DHT22;13951;49.516;6.094;2023-03-31T12:15:59;15.40;99.90
26212;DHT22;13951;49.516;6.094;2023-03-31T12:19:23;15.60;99.90
26212;DHT22;13951;49.516;6.094;2023-03-31T12:21:31;15.80;99.90
26212;DHT22;13951;49.516;6.094;2023-03-31T12:24:05;15.70;99.90
26212;DHT22;13951;49.516;6.094;2023-03-31T12:26:55;15.70;99.90
26212;DHT22;13951;49.516;6.094;2023-03-31T12:29:37;15.80;99.90
26212;DHT22;13951;49.516;6.094;2023-03-31T12:32:15;15.80;99.90
26212;DHT22;13951;49.516;6.094;2023-03-31T12:35:03;15.80;99.90
26212;DHT22;13951;49.516;6.094;2023-03-31T12:40:25;15.50;99.90
26212;DHT22;13951;49.516;6.094;2023-03-31T12:43:27;15.30;99.90
26212;DHT22;13951;49.516;6.094;2023-03-31T12:52:06;14.30;99.90
26212;DHT22;13951;49.516;6.094;2023-03-31T12:57:28;13.40;99.90
26212;DHT22;13951;49.516;6.094;2023-03-31T13:02:40;13.20;99.90
26212;DHT22;13951;49.516;6.094;2023-03-31T13:08:47;13.60;99.90
26212;DHT22;13951;49.516;6.094;2023-03-31T13:11:08;13.70;99.90
26212;DHT22;13951;49.516;6.094;2023-03-31T13:14:16;13.90;99.90
26212;DHT22;13951;49.516;6.094;2023-03-31T13:16:51;14.00;99.90
26212;DHT22;13951;49.516;6.094;2023-03-31T13:19:35;14.10;99.90
26212;DHT22;13951;49.516;6.094;2023-03-31T13:22:32;14.20;99.90
26212;DHT22;13951;49.516;6.094;2023-03-31T13:36:02;14.10;99.90
26212;DHT22;13951;49.516;6.094;2023-03-31T13:38:45;14.00;99.90
26212;DHT22;13951;49.516;6.094;2023-03-31T13:44:38;14.00;99.90
26212;DHT22;13951;49.516;6.094;2023-03-31T13:59:21;14.00;99.90
26212;DHT22;13951;49.516;6.094;2023-03-31T14:02:11;14.00;99.90
26212;DHT22;13951;49.516;6.094;2023-03-31T14:05:07;13.90;99.90
26212;DHT22;13951;49.516;6.094;2023-03-31T14:07:47;13.80;99.90
26212;DHT22;13951;49.516;6.094;2023-03-31T14:10:31;13.80;99.90
26212;DHT22;13951;49.516;6.094;2023-03-31T14:13:12;13.80;99.90
26212;DHT22;13951;49.516;6.094;2023-03-31T14:15:51;13.70;99.90
26212;DHT22;13951;49.516;6.094;2023-03-31T14:18:27;13.70;99.90
26212;DHT22;13951;49.516;6.094;2023-03-31T14:24:30;13.50;99.90
26212;DHT22;13951;49.516;6.094;2023-03-31T14:30:42;13.40;99.90
26212;DHT22;13951;49.516;6.094;2023-03-31T14:39:21;13.40;99.90
26212;DHT22;13951;49.516;6.094;2023-03-31T14:41:57;13.30;99.90
26212;DHT22;13951;49.516;6.094;2023-03-31T14:44:33;13.20;99.90
26212;DHT22;13951;49.516;6.094;2023-03-31T14:47:12;13.00;99.90
26212;DHT22;13951;49.516;6.094;2023-03-31T14:49:45;12.70;99.90
26212;DHT22;13951;49.516;6.094;2023-03-31T14:52:20;12.50;99.90
26212;DHT22;13951;49.516;6.094;2023-03-31T14:54:55;12.40;99.90
26212;DHT22;13951;49.516;6.094;2023-03-31T14:57:35;12.40;99.90
26212;DHT22;13951;49.516;6.094;2023-03-31T15:00:13;12.40;99.90
26212;DHT22;13951;49.516;6.094;2023-03-31T15:02:49;12.50;99.90
26212;DHT22;13951;49.516;6.094;2023-03-31T15:05:32;12.50;99.90
26212;DHT22;13951;49.516;6.094;2023-03-31T15:08:09;12.60;99.90
26212;DHT22;13951;49.516;6.094;2023-03-31T15:10:47;12.60;99.90
26212;DHT22;13951;49.516;6.094;2023-03-31T15:13:49;12.60;99.90
26212;DHT22;13951;49.516;6.094;2023-03-31T15:16:40;12.50;99.90
26212;DHT22;13951;49.516;6.094;2023-03-31T15:19:20;12.40;99.90
26212;DHT22;13951;49.516;6.094;2023-03-31T15:22:14;12.30;99.90
26212;DHT22;13951;49.516;6.094;2023-03-31T15:24:51;12.10;99.90
26212;DHT22;13951;49.516;6.094;2023-03-31T15:27:32;12.10;99.90
26212;DHT22;13951;49.516;6.094;2023-03-31T15:30:16;12.10;99.90
26212;DHT22;13951;49.516;6.094;2023-03-31T15:32:50;12.20;99.90
26212;DHT22;13951;49.516;6.094;2023-03-31T15:35:36;12.20;99.90
26212;DHT22;13951;49.516;6.094;2023-03-31T15:38:10;12.20;99.90
26212;DHT22;13951;49.516;6.094;2023-03-31T15:40:48;12.20;99.90
26212;DHT22;13951;49.516;6.094;2023-03-31T15:43:29;12.10;99.90
26212;DHT22;13951;49.516;6.094;2023-03-31T15:46:02;12.10;99.90
26212;DHT22;13951;49.516;6.094;2023-03-31T15:48:48;12.00;99.90
26212;DHT22;13951;49.516;6.094;2023-03-31T15:51:30;11.60;99.90
26212;DHT22;13951;49.516;6.094;2023-03-31T15:54:35;11.40;99.90
26212;DHT22;13951;49.516;6.094;2023-03-31T15:57:08;11.30;99.90
26212;DHT22;13951;49.516;6.094;2023-03-31T15:59:51;11.40;99.90
26212;DHT22;13951;49.516;6.094;2023-03-31T16:02:47;11.40;99.90
26212;DHT22;13951;49.516;6.094;2023-03-31T16:05:41;11.50;99.90
26212;DHT22;13951;49.516;6.094;2023-03-31T16:11:02;11.70;99.90
26212;DHT22;13951;49.516;6.094;2023-03-31T16:13:39;11.80;99.90
26212;DHT22;13951;49.516;6.094;2023-03-31T16:16:17;11.80;99.90
26212;DHT22;13951;49.516;6.094;2023-03-31T16:18:53;11.80;99.90
26212;DHT22;13951;49.516;6.094;2023-03-31T16:21:43;11.80;99.90
26212;DHT22;13951;49.516;6.094;2023-03-31T16:24:28;11.80;99.90
26212;DHT22;13951;49.516;6.094;2023-03-31T16:27:04;11.90;99.90
26212;DHT22;13951;49.516;6.094;2023-03-31T16:29:39;11.90;99.90
26212;DHT22;13951;49.516;6.094;2023-03-31T16:32:17;11.90;99.90
26212;DHT22;13951;49.516;6.094;2023-03-31T16:34:58;12.00;99.90
26212;DHT22;13951;49.516;6.094;2023-03-31T16:37:31;12.00;99.90
26212;DHT22;13951;49.516;6.094;2023-03-31T16:40:05;12.10;99.90
26212;DHT22;13951;49.516;6.094;2023-03-31T16:42:38;12.10;99.90
26212;DHT22;13951;49.516;6.094;2023-03-31T16:45:11;12.10;99.90
26212;DHT22;13951;49.516;6.094;2023-03-31T16:47:46;12.00;99.90
26212;DHT22;13951;49.516;6.094;2023-03-31T16:50:19;12.00;99.90
26212;DHT22;13951;49.516;6.094;2023-03-31T16:52:52;12.00;99.90
26212;DHT22;13951;49.516;6.094;2023-03-31T16:55:25;11.90;99.90
26212;DHT22;13951;49.516;6.094;2023-03-31T16:57:58;11.90;99.90
26212;DHT22;13951;49.516;6.094;2023-03-31T17:00:34;11.80;99.90
26212;DHT22;13951;49.516;6.094;2023-03-31T17:03:09;11.80;99.90
26212;DHT22;13951;49.516;6.094;2023-03-31T17:05:44;11.80;99.90
26212;DHT22;13951;49.516;6.094;2023-03-31T17:08:19;11.70;99.90
26212;DHT22;13951;49.516;6.094;2023-03-31T17:11:08;11.70;99.90
26212;DHT22;13951;49.516;6.094;2023-03-31T17:13:42;11.70;99.90
26212;DHT22;13951;49.516;6.094;2023-03-31T17:16:16;11.60;99.90
26212;DHT22;13951;49.516;6.094;2023-03-31T17:19:04;11.70;99.90
26212;DHT22;13951;49.516;6.094;2023-03-31T17:21:37;11.60;99.90
26212;DHT22;13951;49.516;6.094;2023-03-31T17:24:10;11.60;99.90
26212;DHT22;13951;49.516;6.094;2023-03-31T17:26:43;11.50;99.90
26212;DHT22;13951;49.516;6.094;2023-03-31T17:29:16;11.50;99.90
26212;DHT22;13951;49.516;6.094;2023-03-31T17:31:49;11.40;99.90
26212;DHT22;13951;49.516;6.094;2023-03-31T17:34:22;11.40;99.90
26212;DHT22;13951;49.516;6.094;2023-03-31T17:36:55;11.30;99.90
26212;DHT22;13951;49.516;6.094;2023-03-31T17:39:28;11.20;99.90
26212;DHT22;13951;49.516;6.094;2023-03-31T17:42:01;11.10;99.90
26212;DHT22;13951;49.516;6.094;2023-03-31T17:44:35;11.10;99.90
26212;DHT22;13951;49.516;6.094;2023-03-31T17:47:08;11.00;99.90
26212;DHT22;13951;49.516;6.094;2023-03-31T17:49:41;10.90;99.90
26212;DHT22;13951;49.516;6.094;2023-03-31T17:52:14;10.90;99.90
26212;DHT22;13951;49.516;6.094;2023-03-31T17:54:47;10.90;99.90
26212;DHT22;13951;49.516;6.094;2023-03-31T17:57:22;10.90;99.90
26212;DHT22;13951;49.516;6.094;2023-03-31T17:59:55;10.90;99.90
26212;DHT22;13951;49.516;6.094;2023-03-31T18:02:28;10.90;99.90
26212;DHT22;13951;49.516;6.094;2023-03-31T18:05:01;10.80;99.90
26212;DHT22;13951;49.516;6.094;2023-03-31T18:07:34;10.80;99.90
26212;DHT22;13951;49.516;6.094;2023-03-31T18:10:08;10.80;99.90
26212;DHT22;13951;49.516;6.094;2023-03-31T18:12:41;10.70;99.90
26212;DHT22;13951;49.516;6.094;2023-03-31T18:15:14;10.70;99.90
26212;DHT22;13951;49.516;6.094;2023-03-31T18:17:47;10.70;99.90
26212;DHT22;13951;49.516;6.094;2023-03-31T18:20:20;10.70;99.90
26212;DHT22;13951;49.516;6.094;2023-03-31T18:22:54;10.70;99.90
26212;DHT22;13951;49.516;6.094;2023-03-31T18:25:27;10.80;99.90
26212;DHT22;13951;49.516;6.094;2023-03-31T18:28:00;10.90;99.90
26212;DHT22;13951;49.516;6.094;2023-03-31T18:30:33;10.90;99.90
26212;DHT22;13951;49.516;6.094;2023-03-31T18:33:06;10.90;99.90
26212;DHT22;13951;49.516;6.094;2023-03-31T18:35:39;10.90;99.90
26212;DHT22;13951;49.516;6.094;2023-03-31T18:38:13;10.90;99.90
26212;DHT22;13951;49.516;6.094;2023-03-31T18:40:50;11.00;99.90
26212;DHT22;13951;49.516;6.094;2023-03-31T18:43:24;11.00;99.90
26212;DHT22;13951;49.516;6.094;2023-03-31T18:45:57;10.90;99.90
26212;DHT22;13951;49.516;6.094;2023-03-31T18:48:32;10.90;99.90
26212;DHT22;13951;49.516;6.094;2023-03-31T18:51:06;10.90;99.90
26212;DHT22;13951;49.516;6.094;2023-03-31T18:53:39;10.80;99.90